Time;durP1;ratioP1;P1;durP2;ratioP2;P2;SDS_P1;SDS_P2;PMS_P1;PMS_P2;Temp;Humidity;BMP_temperature;BMP_pressure;BME280_temperature;BME280_humidity;BME280_pressure;Samples;Min_cycle;Max_cycle;Signal;HPM_P1;HPM_P2
2021/10/28 00:12:30;;;;;;;3.00;1.05;;;20.10;67.60;;;;;;4994497;28;96110;-40
2021/10/28 00:15:06;;;;;;;1.17;1.00;;;20.20;67.40;;;;;;4999215;28;95875;-35
2021/10/28 00:18:04;;;;;;;1.52;1.00;;;20.20;67.30;;;;;;4997629;28;96737;-38
2021/10/28 00:20:36;;;;;;;1.40;1.15;;;20.30;67.30;;;;;;4975959;28;98467;-39
2021/10/28 00:23:09;;;;;;;1.98;1.10;;;20.30;67.10;;;;;;4994382;28;95873;-36
2021/10/28 00:25:41;;;;;;;2.00;1.02;;;20.40;67.20;;;;;;5000212;28;96077;-34
2021/10/28 00:28:12;;;;;;;1.92;1.35;;;20.40;67.00;;;;;;4997645;28;95328;-39
2021/10/28 00:30:42;;;;;;;;;;;20.50;67.00;;;;;;4993191;28;97807;-38
2021/10/28 00:33:14;;;;;;;1.10;0.85;;;20.60;67.00;;;;;;5005407;28;95645;-38
2021/10/28 00:35:45;;;;;;;;;;;20.60;66.90;;;;;;4998919;28;95870;-37
2021/10/28 00:38:15;;;;;;;5.25;1.65;;;20.70;66.70;;;;;;5002112;28;96680;-37
2021/10/28 00:40:46;;;;;;;3.53;1.20;;;20.60;66.10;;;;;;4998270;28;96599;-38
2021/10/28 00:43:16;;;;;;;1.98;1.42;;;20.50;66.00;;;;;;4996956;28;96495;-39
2021/10/28 00:45:53;;;;;;;2.05;1.00;;;20.50;66.10;;;;;;4992007;28;96079;-36
2021/10/28 00:48:24;;;;;;;3.35;1.27;;;20.40;66.10;;;;;;4998224;28;95810;-40
2021/10/28 00:50:55;;;;;;;2.60;1.23;;;20.40;66.20;;;;;;4997814;28;96540;-41
2021/10/28 00:53:26;;;;;;;;;;;20.40;66.20;;;;;;5003277;28;96780;-41
2021/10/28 00:55:57;;;;;;;1.57;0.93;;;20.40;66.30;;;;;;5000956;28;95992;-39
2021/10/28 00:58:34;;;;;;;2.75;1.00;;;20.40;63.70;;;;;;4998035;28;95536;-39
2021/10/28 01:01:07;;;;;;;4.47;1.85;;;20.50;66.40;;;;;;4988118;28;99895;-34
2021/10/28 01:03:39;;;;;;;3.42;0.90;;;20.70;66.40;;;;;;4989605;28;96374;-37
2021/10/28 01:06:12;;;;;;;3.30;1.13;;;20.70;64.30;;;;;;4998926;28;96596;-40
2021/10/28 01:08:45;;;;;;;1.00;0.90;;;20.80;66.20;;;;;;4996326;28;95751;-36
2021/10/28 01:11:17;;;;;;;1.75;1.10;;;21.00;66.30;;;;;;4999565;28;96324;-34
2021/10/28 01:13:49;;;;;;;1.48;1.05;;;21.10;66.20;;;;;;5000123;28;96404;-34
2021/10/28 01:16:21;;;;;;;2.28;1.17;;;21.10;66.10;;;;;;4977009;28;95919;-37
2021/10/28 01:18:53;;;;;;;3.60;1.30;;;21.20;66.00;;;;;;4997033;28;95760;-38
2021/10/28 01:21:24;;;;;;;1.42;1.02;;;21.30;66.00;;;;;;5000650;28;96988;-35
2021/10/28 01:23:55;;;;;;;2.13;1.48;;;21.40;65.90;;;;;;5000299;28;96398;-36
2021/10/28 01:26:26;;;;;;;1.43;1.10;;;21.40;65.80;;;;;;4999560;28;96014;-36
2021/10/28 01:29:03;;;;;;;0.88;0.88;;;21.50;65.80;;;;;;5001972;28;95669;-42
2021/10/28 01:31:36;;;;;;;1.73;1.00;;;21.60;65.80;;;;;;4992265;28;96475;-39
2021/10/28 01:34:08;;;;;;;1.35;0.90;;;21.70;65.60;;;;;;4998262;28;95814;-43
2021/10/28 01:36:39;;;;;;;2.22;1.08;;;21.90;65.50;;;;;;4996014;28;97267;-40
2021/10/28 01:39:22;;;;;;;1.57;1.10;;;22.00;65.30;;;;;;5001699;28;95952;-36
2021/10/28 01:41:54;;;;;;;1.23;1.00;;;22.20;65.00;;;;;;4999089;28;96856;-38
2021/10/28 01:44:27;;;;;;;1.85;1.30;;;22.40;64.90;;;;;;5001675;28;96629;-39
2021/10/28 01:46:58;;;;;;;1.50;1.10;;;22.60;64.70;;;;;;4997697;28;96197;-38
2021/10/28 01:49:30;;;;;;;1.63;1.00;;;22.80;64.40;;;;;;5002683;28;95715;-38
2021/10/28 01:52:01;;;;;;;0.80;0.80;;;22.90;61.60;;;;;;4996253;28;96736;-38
2021/10/28 01:54:34;;;;;;;1.73;1.00;;;23.10;63.80;;;;;;4981677;28;97043;-35
2021/10/28 01:57:23;;;;;;;0.93;0.93;;;23.20;63.50;;;;;;4999703;28;96638;-39
2021/10/28 01:59:54;;;;;;;1.23;1.13;;;23.30;63.10;;;;;;5002221;28;95850;-41
2021/10/28 02:02:26;;;;;;;1.23;1.13;;;23.30;61.00;;;;;;4996747;28;96461;-40
2021/10/28 02:04:57;;;;;;;0.98;0.88;;;23.30;62.70;;;;;;4999393;28;95474;-42
2021/10/28 02:07:30;;;;;;;1.05;1.02;;;23.30;62.60;;;;;;4999868;28;96030;-39
2021/10/28 02:10:01;;;;;;;1.58;1.48;;;23.30;62.60;;;;;;4998671;28;95908;-38
2021/10/28 02:12:34;;;;;;;2.47;1.30;;;23.30;62.70;;;;;;5000912;28;97587;-38
2021/10/28 02:15:08;;;;;;;1.20;1.10;;;23.30;62.70;;;;;;5000744;28;96442;-41
2021/10/28 02:17:39;;;;;;;1.98;1.02;;;23.30;62.70;;;;;;4990663;28;96068;-38
2021/10/28 02:20:11;;;;;;;3.78;1.60;;;23.30;62.70;;;;;;5001413;28;96805;-40
2021/10/28 02:22:43;;;;;;;2.10;1.33;;;23.30;61.90;;;;;;4999478;28;97191;-41
2021/10/28 02:25:15;;;;;;;1.88;1.25;;;23.10;61.50;;;;;;4996116;28;98340;-40
2021/10/28 02:27:54;;;;;;;1.60;1.50;;;22.90;61.90;;;;;;4998258;28;95587;-40
2021/10/28 02:30:27;;;;;;;2.80;1.40;;;22.80;62.30;;;;;;4979512;28;96613;-42
2021/10/28 02:32:58;;;;;;;2.13;1.40;;;22.70;62.30;;;;;;4981600;28;96881;-41
2021/10/28 02:35:30;;;;;;;6.97;1.33;;;22.60;62.40;;;;;;4998487;28;96493;-39
2021/10/28 02:37:59;;;;;;;1.70;1.45;;;22.60;62.60;;;;;;4981248;28;95789;-39
2021/10/28 02:40:33;;;;;;;1.65;1.40;;;22.50;62.60;;;;;;4999092;28;96168;-40
2021/10/28 02:43:04;;;;;;;1.52;1.35;;;22.50;62.90;;;;;;4996633;28;96163;-38
2021/10/28 02:45:35;;;;;;;5.05;1.25;;;22.40;62.80;;;;;;4993976;28;97026;-40
2021/10/28 02:48:06;;;;;;;2.95;1.42;;;22.40;62.90;;;;;;4998556;28;96951;-42
2021/10/28 02:50:38;;;;;;;1.70;1.25;;;22.40;63.00;;;;;;5001569;28;96106;-39
2021/10/28 02:53:09;;;;;;;1.98;1.40;;;22.40;63.00;;;;;;5000289;28;96769;-41
2021/10/28 02:55:41;;;;;;;1.88;1.35;;;22.30;63.10;;;;;;4997855;28;96977;-41
2021/10/28 02:58:13;;;;;;;1.58;1.25;;;22.30;63.20;;;;;;4996374;28;95901;-41
2021/10/28 03:00:44;;;;;;;1.38;1.27;;;22.30;63.20;;;;;;4990575;28;98881;-41
2021/10/28 03:03:16;;;;;;;1.13;1.02;;;22.30;63.30;;;;;;4999580;28;96456;-39
2021/10/28 03:05:47;;;;;;;1.88;1.05;;;22.30;63.40;;;;;;4999211;28;95595;-40
2021/10/28 03:08:19;;;;;;;2.60;1.58;;;22.30;63.50;;;;;;4999921;28;95999;-38
2021/10/28 03:10:49;;;;;;;2.13;1.30;;;22.20;63.40;;;;;;4997824;28;96971;-35
2021/10/28 03:13:20;;;;;;;3.58;1.35;;;22.20;63.50;;;;;;4998989;28;98372;-42
2021/10/28 03:15:53;;;;;;;1.77;1.50;;;22.30;63.70;;;;;;4989361;28;96212;-41
2021/10/28 03:27:10;;;;;;;2.10;1.40;;;22.30;63.50;;;;;;4952780;28;95905;-41
2021/10/28 03:29:43;;;;;;;3.22;1.33;;;22.40;63.60;;;;;;4992649;28;96763;-39
2021/10/28 03:32:20;;;;;;;3.17;1.38;;;22.40;63.50;;;;;;4987843;28;97566;-41
2021/10/28 03:34:54;;;;;;;2.67;1.25;;;22.40;61.40;;;;;;4976100;28;96622;-41
2021/10/28 03:37:34;;;;;;;3.15;1.20;;;22.40;63.30;;;;;;5000924;28;95991;-40
2021/10/28 04:16:32;;;;;;;2.97;1.20;;;23.10;62.30;;;;;;4999062;28;96040;-41
2021/10/28 04:30:44;;;;;;;4.80;1.25;;;23.70;59.60;;;;;;4968244;28;100181;-43
2021/10/28 04:33:17;;;;;;;1.40;1.30;;;23.70;59.40;;;;;;4996105;28;95919;-41
2021/10/28 04:35:47;;;;;;;3.30;1.63;;;23.70;59.40;;;;;;4996295;28;95995;-40
2021/10/28 04:38:21;;;;;;;2.00;1.30;;;23.80;59.40;;;;;;4991596;28;95873;-43
2021/10/28 04:40:51;;;;;;;1.30;1.20;;;23.90;58.50;;;;;;4992499;28;95986;-40
2021/10/28 04:43:22;;;;;;;2.30;1.30;;;24.00;58.30;;;;;;4993200;28;95825;-43
2021/10/28 04:45:53;;;;;;;1.83;0.95;;;24.00;58.50;;;;;;4989909;28;96132;-42
2021/10/28 04:48:24;;;;;;;2.97;1.33;;;24.00;58.70;;;;;;4995365;28;95808;-44
2021/10/28 04:50:54;;;;;;;1.20;1.10;;;24.00;58.50;;;;;;4995898;28;96594;-41
2021/10/28 04:53:28;;;;;;;1.77;1.30;;;24.00;58.70;;;;;;4998280;28;95833;-41
2021/10/28 04:56:01;;;;;;;2.38;1.45;;;24.00;56.40;;;;;;4993195;28;97612;-42
2021/10/28 04:58:32;;;;;;;1.70;1.27;;;23.90;59.10;;;;;;4994505;28;95979;-41
2021/10/28 05:01:03;;;;;;;1.80;1.40;;;23.90;59.30;;;;;;4988441;28;98311;-41
2021/10/28 05:03:35;;;;;;;3.33;1.77;;;23.90;58.80;;;;;;4979233;28;96508;-43
2021/10/28 05:06:07;;;;;;;;;;;24.00;59.20;;;;;;4995879;28;95698;-41
2021/10/28 05:08:37;;;;;;;4.10;1.50;;;23.90;57.40;;;;;;4979479;28;96240;-43
2021/10/28 05:11:08;;;;;;;5.80;1.50;;;24.00;59.00;;;;;;4994719;28;96405;-41
2021/10/28 05:13:39;;;;;;;3.58;1.40;;;24.00;59.10;;;;;;4995225;28;97039;-42
2021/10/28 05:16:10;;;;;;;1.63;1.23;;;24.10;58.80;;;;;;4975535;28;96660;-41
2021/10/28 05:18:42;;;;;;;2.50;1.42;;;24.10;59.00;;;;;;4983215;28;97531;-41
2021/10/28 05:21:14;;;;;;;1.65;1.50;;;24.10;59.10;;;;;;4997477;28;97966;-42
2021/10/28 05:23:46;;;;;;;1.50;1.40;;;24.20;59.10;;;;;;5000686;28;96162;-39
2021/10/28 05:26:17;;;;;;;1.52;1.42;;;24.20;59.10;;;;;;4999531;28;95951;-39
2021/10/28 05:28:48;;;;;;;;;;;24.20;58.50;;;;;;4994902;28;97756;-42
2021/10/28 05:31:21;;;;;;;2.58;1.23;;;24.20;59.20;;;;;;4993139;28;97659;-43
2021/10/28 05:33:53;;;;;;;2.40;1.10;;;24.20;59.20;;;;;;4998114;28;96357;-43
2021/10/28 05:36:24;;;;;;;1.75;1.10;;;24.30;59.20;;;;;;4988275;28;97150;-43
2021/10/28 05:38:55;;;;;;;4.10;1.42;;;24.40;58.10;;;;;;4998308;28;96191;-43
2021/10/28 05:41:25;;;;;;;2.22;1.20;;;24.40;57.90;;;;;;4978537;28;98476;-40
2021/10/28 05:43:57;;;;;;;1.38;1.27;;;24.50;58.20;;;;;;4996181;28;95889;-43
2021/10/28 05:46:29;;;;;;;2.72;1.20;;;24.40;58.30;;;;;;4989047;28;95935;-42
2021/10/28 05:49:00;;;;;;;1.30;1.20;;;24.40;58.50;;;;;;4998020;28;95881;-40
2021/10/28 05:51:31;;;;;;;1.90;1.25;;;24.30;58.40;;;;;;4995489;28;96120;-43
2021/10/28 05:54:03;;;;;;;4.03;1.23;;;24.30;58.70;;;;;;4997640;28;95738;-43
2021/10/28 05:56:33;;;;;;;1.50;1.02;;;24.40;58.90;;;;;;4998577;28;95815;-39
2021/10/28 05:59:04;;;;;;;1.60;1.20;;;24.40;58.60;;;;;;4988103;28;95520;-39
2021/10/28 06:01:36;;;;;;;2.10;1.30;;;24.50;58.80;;;;;;4983612;28;96175;-40
2021/10/28 06:04:07;;;;;;;1.50;1.40;;;24.40;59.00;;;;;;4997315;28;96807;-42
2021/10/28 06:06:38;;;;;;;2.78;1.20;;;24.50;58.90;;;;;;5000790;28;96412;-41
2021/10/28 06:09:10;;;;;;;1.20;1.10;;;24.50;59.10;;;;;;5000354;28;95813;-41
2021/10/28 06:11:41;;;;;;;1.60;1.50;;;24.60;58.80;;;;;;4995734;28;97034;-42
2021/10/28 06:14:17;;;;;;;2.38;1.10;;;24.60;59.00;;;;;;4987477;28;95625;-42
2021/10/28 06:16:51;;;;;;;2.67;1.10;;;24.50;59.20;;;;;;4995925;28;95764;-42
2021/10/28 06:19:21;;;;;;;2.88;1.30;;;24.60;59.40;;;;;;4996475;28;96464;-42
2021/10/28 06:21:52;;;;;;;1.58;1.33;;;24.60;59.40;;;;;;4995961;28;96737;-40
2021/10/28 06:24:24;;;;;;;2.17;1.02;;;24.50;59.50;;;;;;5000361;28;96137;-39
2021/10/28 06:26:55;;;;;;;;;;;24.50;59.60;;;;;;4992150;28;95864;-39
2021/10/28 06:29:26;;;;;;;;;;;24.50;59.70;;;;;;4995039;28;95676;-41
2021/10/28 06:31:58;;;;;;;3.80;1.20;;;24.50;59.90;;;;;;4993939;27;96197;-42
2021/10/28 06:34:37;;;;;;;1.77;1.30;;;24.50;60.00;;;;;;4993078;28;96469;-41
2021/10/28 06:37:09;;;;;;;4.90;1.40;;;24.40;60.10;;;;;;4993433;28;95792;-42
2021/10/28 06:39:39;;;;;;;1.20;1.10;;;24.40;60.10;;;;;;4993582;28;96114;-41
2021/10/28 06:42:16;;;;;;;4.22;1.58;;;24.40;60.30;;;;;;4989097;28;96149;-42
2021/10/28 06:44:47;;;;;;;4.15;1.30;;;24.40;60.50;;;;;;4996426;28;95846;-42
2021/10/28 06:47:21;;;;;;;1.88;1.15;;;24.40;60.60;;;;;;4990552;28;98798;-42
2021/10/28 06:49:52;;;;;;;1.35;1.10;;;24.40;60.70;;;;;;4995977;28;95459;-42
2021/10/28 06:52:23;;;;;;;1.85;1.23;;;24.40;59.20;;;;;;4977696;28;96661;-37
2021/10/28 06:54:56;;;;;;;1.27;1.00;;;24.40;59.30;;;;;;4995862;28;96332;-40
2021/10/28 07:02:47;;;;;;;3.53;1.38;;;24.30;61.40;;;;;;4994462;28;103012;-42
2021/10/28 07:05:18;;;;;;;4.88;1.83;;;24.30;61.50;;;;;;4998794;28;95925;-40
2021/10/28 07:07:50;;;;;;;4.55;2.08;;;24.20;61.60;;;;;;4996154;28;95711;-41
2021/10/28 07:10:24;;;;;;;2.67;1.65;;;24.20;61.80;;;;;;4992979;28;95794;-41
2021/10/28 07:15:40;;;;;;;4.70;2.50;;;24.20;62.10;;;;;;4989807;28;96346;-41
2021/10/28 07:32:02;;;;;;;19.85;8.63;;;23.80;64.20;;;;;;4988695;28;95867;-41
2021/10/28 08:14:33;;;;;;;12.07;6.97;;;23.10;69.60;;;;;;4995160;28;95800;-42
2021/10/28 08:17:25;;;;;;;14.02;7.03;;;23.10;69.70;;;;;;4983053;28;97196;-43
2021/10/28 08:20:01;;;;;;;8.95;4.97;;;23.10;69.60;;;;;;4995272;28;95916;-43
2021/10/28 08:30:44;;;;;;;11.15;3.47;;;22.80;71.60;;;;;;4993097;28;96597;-43
2021/10/28 08:33:19;;;;;;;10.02;3.45;;;22.60;71.50;;;;;;4992344;28;96689;-42
2021/10/28 08:35:54;;;;;;;10.82;3.67;;;22.50;71.70;;;;;;4982592;28;95721;-45
2021/10/28 08:38:25;;;;;;;9.40;3.05;;;22.50;72.10;;;;;;4994162;28;96190;-42
2021/10/28 08:40:56;;;;;;;6.75;2.83;;;22.40;71.90;;;;;;4989284;28;96151;-45
2021/10/28 08:43:36;;;;;;;7.57;3.72;;;22.40;71.70;;;;;;4996184;28;95721;-42
2021/10/28 08:46:11;;;;;;;11.90;3.28;;;22.30;71.70;;;;;;4996306;28;97766;-43
2021/10/28 08:48:51;;;;;;;4.78;2.97;;;22.20;71.90;;;;;;4994828;28;95786;-43
2021/10/28 08:54:08;;;;;;;7.78;2.70;;;22.10;71.50;;;;;;4994476;28;95340;-42
2021/10/28 09:19:35;;;;;;;6.47;3.17;;;21.50;71.10;;;;;;4990347;28;95769;-43
2021/10/28 09:25:09;;;;;;;7.25;3.40;;;21.40;71.70;;;;;;4989571;28;96477;-40
2021/10/28 09:27:58;;;;;;;6.10;3.10;;;21.30;71.60;;;;;;4989343;28;96163;-43
2021/10/28 09:30:53;;;;;;;6.10;3.70;;;21.20;71.50;;;;;;4985039;28;95934;-42
2021/10/28 09:33:48;;;;;;;9.00;3.72;;;21.10;71.80;;;;;;4993332;28;95666;-43
2021/10/28 09:51:15;;;;;;;8.50;3.33;;;20.70;73.70;;;;;;4989744;28;96057;-41
2021/10/28 09:59:47;;;;;;;8.98;3.42;;;20.30;74.40;;;;;;4991961;28;96046;-42
2021/10/28 10:03:09;;;;;;;10.27;3.40;;;20.30;74.70;;;;;;4989345;28;96792;-42
2021/10/28 10:05:27;;;;;;;6.63;3.20;;;20.20;74.50;;;;;;4980117;28;96577;-43
2021/10/28 10:07:59;;;;;;;6.32;3.08;;;20.00;72.90;;;;;;5000745;28;96481;-42
2021/10/28 10:10:31;;;;;;;5.82;2.10;;;19.80;75.60;;;;;;4992364;28;96042;-42
2021/10/28 10:13:03;;;;;;;7.72;2.60;;;19.80;76.50;;;;;;5007622;27;98270;-45
2021/10/28 10:15:35;;;;;;;7.22;2.90;;;19.80;75.90;;;;;;4983379;28;98384;-44
2021/10/28 10:18:07;;;;;;;6.93;3.42;;;19.80;76.10;;;;;;4992458;28;95528;-44
2021/10/28 10:21:06;;;;;;;6.82;2.95;;;19.80;76.20;;;;;;4986828;28;96422;-43
2021/10/28 11:06:02;;;;;;;7.90;2.83;;;19.40;78.50;;;;;;4987702;28;96018;-45
2021/10/28 12:47:50;;;;;;;1.27;0.68;;;19.40;77.70;;;;;;4984135;28;96951;-43
2021/10/28 12:53:51;;;;;;;1.13;1.02;;;19.40;76.00;;;;;;5000263;28;98023;-44
2021/10/28 12:56:45;;;;;;;2.20;0.80;;;19.40;78.40;;;;;;4995468;28;96114;-45
2021/10/28 13:48:19;;;;;;;3.05;1.10;;;20.00;75.40;;;;;;4991538;28;96478;-38
2021/10/28 15:00:48;;;;;;;2.25;1.20;;;19.50;75.00;;;;;;5003741;28;96257;-39
2021/10/28 15:28:11;;;;;;;3.97;1.10;;;19.50;71.20;;;;;;5001812;28;95985;-41
2021/10/28 15:36:29;;;;;;;4.53;1.60;;;19.50;71.50;;;;;;4991998;28;96488;-42
2021/10/28 16:23:50;;;;;;;5.40;1.33;;;19.60;69.00;;;;;;4993320;28;96236;-37
2021/10/28 16:26:22;;;;;;;4.05;1.88;;;19.70;69.10;;;;;;4975423;28;96195;-41
2021/10/28 16:28:53;;;;;;;3.13;1.40;;;19.70;68.00;;;;;;4988397;28;95955;-41
2021/10/28 16:31:24;;;;;;;3.55;1.20;;;19.70;68.60;;;;;;4987489;28;96445;-40
2021/10/28 16:33:55;;;;;;;5.25;1.60;;;19.70;67.90;;;;;;4998192;28;96007;-41
2021/10/28 16:36:27;;;;;;;1.60;1.40;;;19.70;68.00;;;;;;4999555;28;96771;-40
2021/10/28 16:39:00;;;;;;;4.88;1.55;;;19.70;68.00;;;;;;4990482;28;95797;-40
2021/10/28 16:41:30;;;;;;;2.45;1.00;;;19.70;68.00;;;;;;4998861;28;95781;-40
2021/10/28 16:44:00;;;;;;;4.63;1.27;;;19.70;67.60;;;;;;4997101;28;95964;-40
2021/10/28 16:46:32;;;;;;;;;;;19.70;67.10;;;;;;4999933;28;96736;-40
2021/10/28 16:49:02;;;;;;;7.70;1.53;;;19.70;67.10;;;;;;5006134;28;95561;-37
2021/10/28 16:51:50;;;;;;;5.03;1.88;;;19.70;66.70;;;;;;4988686;28;95709;-42
2021/10/28 16:54:21;;;;;;;3.53;1.13;;;19.70;66.90;;;;;;4990634;28;95755;-40
2021/10/28 16:56:50;;;;;;;5.43;1.13;;;19.70;64.80;;;;;;5008163;28;96349;-41
2021/10/28 16:59:21;;;;;;;5.28;1.50;;;19.70;66.30;;;;;;5007373;28;95927;-39
2021/10/28 17:01:54;;;;;;;3.35;1.48;;;19.70;66.50;;;;;;5000083;28;95875;-39
2021/10/28 17:04:52;;;;;;;5.82;2.22;;;19.70;65.70;;;;;;5002578;28;95909;-41
2021/10/28 17:07:34;;;;;;;5.07;1.40;;;19.60;61.90;;;;;;4983581;28;96186;-38
2021/10/28 17:10:22;;;;;;;3.90;1.10;;;19.60;65.20;;;;;;4991587;28;96109;-41
2021/10/28 17:12:53;;;;;;;6.60;1.67;;;19.60;64.90;;;;;;4994594;28;95935;-41
2021/10/28 17:15:40;;;;;;;6.40;1.25;;;19.60;63.50;;;;;;4980400;27;96609;-41
2021/10/28 17:18:22;;;;;;;6.13;1.23;;;19.50;63.50;;;;;;4991295;28;96191;-41
2021/10/28 17:20:58;;;;;;;3.25;1.42;;;19.50;62.60;;;;;;4998085;28;96398;-37
2021/10/28 17:23:33;;;;;;;4.50;1.40;;;19.40;60.00;;;;;;4990548;28;95302;-40
2021/10/28 17:26:05;;;;;;;6.10;1.85;;;19.40;60.10;;;;;;5009668;27;96041;-39
2021/10/28 17:28:37;;;;;;;7.43;1.40;;;19.30;60.40;;;;;;4992658;28;97182;-40
